sensor_id;sensor_type;location;lat;lon;timestamp;P1;durP1;ratioP1;P2;durP2;ratioP2
16031;SDS011;8120;48.308;8.914;2022-09-03T00:02:01;2.50;;;2.10;;
16031;SDS011;8120;48.308;8.914;2022-09-03T00:04:36;1.97;;;1.80;;
16031;SDS011;8120;48.308;8.914;2022-09-03T00:07:13;2.40;;;2.10;;
16031;SDS011;8120;48.308;8.914;2022-09-03T00:09:47;3.13;;;2.23;;
16031;SDS011;8120;48.308;8.914;2022-09-03T00:12:21;5.70;;;2.40;;
16031;SDS011;8120;48.308;8.914;2022-09-03T00:14:54;2.33;;;2.10;;
16031;SDS011;8120;48.308;8.914;2022-09-03T00:17:28;4.07;;;2.60;;
16031;SDS011;8120;48.308;8.914;2022-09-03T00:20:01;3.00;;;2.37;;
16031;SDS011;8120;48.308;8.914;2022-09-03T00:22:34;2.47;;;2.17;;
16031;SDS011;8120;48.308;8.914;2022-09-03T00:25:06;3.97;;;2.40;;
16031;SDS011;8120;48.308;8.914;2022-09-03T00:27:39;2.93;;;2.10;;
16031;SDS011;8120;48.308;8.914;2022-09-03T00:30:11;2.70;;;2.20;;
16031;SDS011;8120;48.308;8.914;2022-09-03T00:32:43;3.53;;;2.30;;
16031;SDS011;8120;48.308;8.914;2022-09-03T00:35:15;3.20;;;2.30;;
16031;SDS011;8120;48.308;8.914;2022-09-03T00:37:48;2.63;;;2.07;;
16031;SDS011;8120;48.308;8.914;2022-09-03T00:40:21;2.80;;;2.40;;
16031;SDS011;8120;48.308;8.914;2022-09-03T00:43:10;2.27;;;2.00;;
16031;SDS011;8120;48.308;8.914;2022-09-03T00:45:50;3.57;;;2.43;;
16031;SDS011;8120;48.308;8.914;2022-09-03T00:48:23;2.97;;;2.47;;
16031;SDS011;8120;48.308;8.914;2022-09-03T00:51:01;3.33;;;2.50;;
16031;SDS011;8120;48.308;8.914;2022-09-03T00:53:43;4.47;;;2.50;;
16031;SDS011;8120;48.308;8.914;2022-09-03T00:56:21;2.50;;;2.30;;
16031;SDS011;8120;48.308;8.914;2022-09-03T00:59:02;3.40;;;2.40;;
16031;SDS011;8120;48.308;8.914;2022-09-03T01:01:39;2.50;;;2.30;;
16031;SDS011;8120;48.308;8.914;2022-09-03T01:04:21;3.10;;;2.60;;
16031;SDS011;8120;48.308;8.914;2022-09-03T01:06:56;2.73;;;2.43;;
16031;SDS011;8120;48.308;8.914;2022-09-03T01:09:38;2.43;;;2.17;;
16031;SDS011;8120;48.308;8.914;2022-09-03T01:12:15;2.33;;;2.13;;
16031;SDS011;8120;48.308;8.914;2022-09-03T01:14:53;3.67;;;2.40;;
16031;SDS011;8120;48.308;8.914;2022-09-03T01:17:31;3.10;;;2.50;;
16031;SDS011;8120;48.308;8.914;2022-09-03T01:20:13;3.03;;;2.60;;
16031;SDS011;8120;48.308;8.914;2022-09-03T01:23:03;6.00;;;2.23;;
16031;SDS011;8120;48.308;8.914;2022-09-03T01:25:53;5.40;;;3.07;;
16031;SDS011;8120;48.308;8.914;2022-09-03T01:28:35;2.93;;;2.60;;
16031;SDS011;8120;48.308;8.914;2022-09-03T01:31:18;3.50;;;2.77;;
16031;SDS011;8120;48.308;8.914;2022-09-03T01:33:54;4.97;;;2.50;;
16031;SDS011;8120;48.308;8.914;2022-09-03T01:36:32;3.30;;;2.37;;
16031;SDS011;8120;48.308;8.914;2022-09-03T01:39:10;3.47;;;2.90;;
16031;SDS011;8120;48.308;8.914;2022-09-03T01:41:46;3.83;;;2.80;;
16031;SDS011;8120;48.308;8.914;2022-09-03T01:45:13;4.13;;;2.70;;
16031;SDS011;8120;48.308;8.914;2022-09-03T01:47:57;3.17;;;2.77;;
16031;SDS011;8120;48.308;8.914;2022-09-03T01:50:38;4.47;;;2.70;;
16031;SDS011;8120;48.308;8.914;2022-09-03T01:53:16;4.17;;;2.80;;
16031;SDS011;8120;48.308;8.914;2022-09-03T01:56:05;4.23;;;2.63;;
16031;SDS011;8120;48.308;8.914;2022-09-03T01:58:44;4.33;;;2.77;;
16031;SDS011;8120;48.308;8.914;2022-09-03T02:01:24;3.53;;;2.97;;
16031;SDS011;8120;48.308;8.914;2022-09-03T02:03:55;8.07;;;3.43;;
16031;SDS011;8120;48.308;8.914;2022-09-03T02:06:26;3.27;;;2.73;;
16031;SDS011;8120;48.308;8.914;2022-09-03T02:08:56;3.90;;;3.40;;
16031;SDS011;8120;48.308;8.914;2022-09-03T02:11:26;3.90;;;2.77;;
16031;SDS011;8120;48.308;8.914;2022-09-03T02:13:55;3.97;;;2.90;;
16031;SDS011;8120;48.308;8.914;2022-09-03T02:16:26;5.37;;;3.00;;
16031;SDS011;8120;48.308;8.914;2022-09-03T02:18:58;4.43;;;2.90;;
16031;SDS011;8120;48.308;8.914;2022-09-03T02:21:30;5.13;;;2.97;;
16031;SDS011;8120;48.308;8.914;2022-09-03T02:24:02;5.50;;;3.40;;
16031;SDS011;8120;48.308;8.914;2022-09-03T02:26:31;3.97;;;3.03;;
16031;SDS011;8120;48.308;8.914;2022-09-03T02:29:00;3.43;;;3.13;;
16031;SDS011;8120;48.308;8.914;2022-09-03T02:31:30;4.67;;;3.47;;
16031;SDS011;8120;48.308;8.914;2022-09-03T02:33:58;4.13;;;3.23;;
16031;SDS011;8120;48.308;8.914;2022-09-03T02:36:27;8.63;;;3.70;;
16031;SDS011;8120;48.308;8.914;2022-09-03T02:38:57;4.63;;;3.27;;
16031;SDS011;8120;48.308;8.914;2022-09-03T02:41:25;4.43;;;3.57;;
16031;SDS011;8120;48.308;8.914;2022-09-03T02:43:53;5.53;;;3.70;;
16031;SDS011;8120;48.308;8.914;2022-09-03T02:46:26;5.17;;;3.30;;
16031;SDS011;8120;48.308;8.914;2022-09-03T02:48:59;3.87;;;2.70;;
16031;SDS011;8120;48.308;8.914;2022-09-03T02:51:30;5.13;;;2.90;;
16031;SDS011;8120;48.308;8.914;2022-09-03T02:54:00;4.33;;;3.00;;
16031;SDS011;8120;48.308;8.914;2022-09-03T02:56:28;3.70;;;2.70;;
16031;SDS011;8120;48.308;8.914;2022-09-03T02:58:56;3.90;;;3.20;;
16031;SDS011;8120;48.308;8.914;2022-09-03T03:01:25;3.47;;;2.90;;
16031;SDS011;8120;48.308;8.914;2022-09-03T03:03:54;4.23;;;3.07;;
16031;SDS011;8120;48.308;8.914;2022-09-03T03:06:22;3.63;;;3.10;;
16031;SDS011;8120;48.308;8.914;2022-09-03T03:08:50;4.97;;;3.07;;
16031;SDS011;8120;48.308;8.914;2022-09-03T03:11:21;8.70;;;3.33;;
16031;SDS011;8120;48.308;8.914;2022-09-03T03:13:50;3.53;;;3.10;;
16031;SDS011;8120;48.308;8.914;2022-09-03T03:16:18;5.17;;;3.20;;
16031;SDS011;8120;48.308;8.914;2022-09-03T03:18:46;5.47;;;3.43;;
16031;SDS011;8120;48.308;8.914;2022-09-03T03:21:17;4.33;;;3.27;;
16031;SDS011;8120;48.308;8.914;2022-09-03T03:23:45;4.27;;;3.43;;
16031;SDS011;8120;48.308;8.914;2022-09-03T03:26:14;3.93;;;3.20;;
16031;SDS011;8120;48.308;8.914;2022-09-03T03:28:43;4.17;;;3.40;;
16031;SDS011;8120;48.308;8.914;2022-09-03T03:31:14;3.63;;;3.00;;
16031;SDS011;8120;48.308;8.914;2022-09-03T03:33:44;4.63;;;3.40;;
16031;SDS011;8120;48.308;8.914;2022-09-03T03:36:18;5.83;;;3.50;;
16031;SDS011;8120;48.308;8.914;2022-09-03T03:38:47;3.40;;;2.80;;
16031;SDS011;8120;48.308;8.914;2022-09-03T03:41:16;4.63;;;3.30;;
16031;SDS011;8120;48.308;8.914;2022-09-03T03:43:47;5.60;;;3.83;;
16031;SDS011;8120;48.308;8.914;2022-09-03T03:46:18;5.37;;;3.30;;
16031;SDS011;8120;48.308;8.914;2022-09-03T03:48:47;6.47;;;3.03;;
16031;SDS011;8120;48.308;8.914;2022-09-03T03:51:15;6.07;;;3.50;;
16031;SDS011;8120;48.308;8.914;2022-09-03T03:53:45;4.17;;;3.10;;
16031;SDS011;8120;48.308;8.914;2022-09-03T03:56:14;4.80;;;3.37;;
16031;SDS011;8120;48.308;8.914;2022-09-03T03:58:42;4.83;;;3.57;;
16031;SDS011;8120;48.308;8.914;2022-09-03T04:01:11;4.57;;;3.30;;
16031;SDS011;8120;48.308;8.914;2022-09-03T04:03:40;5.37;;;3.20;;
16031;SDS011;8120;48.308;8.914;2022-09-03T04:06:09;4.40;;;3.47;;
16031;SDS011;8120;48.308;8.914;2022-09-03T04:08:42;5.03;;;3.30;;
16031;SDS011;8120;48.308;8.914;2022-09-03T04:11:13;4.83;;;3.27;;
16031;SDS011;8120;48.308;8.914;2022-09-03T04:13:43;5.03;;;3.47;;
16031;SDS011;8120;48.308;8.914;2022-09-03T04:16:12;4.40;;;3.33;;
16031;SDS011;8120;48.308;8.914;2022-09-03T04:18:41;5.20;;;3.80;;
16031;SDS011;8120;48.308;8.914;2022-09-03T04:21:10;5.63;;;3.40;;
16031;SDS011;8120;48.308;8.914;2022-09-03T04:23:42;4.33;;;3.43;;
16031;SDS011;8120;48.308;8.914;2022-09-03T04:26:13;3.63;;;3.07;;
16031;SDS011;8120;48.308;8.914;2022-09-03T04:28:42;4.40;;;3.50;;
16031;SDS011;8120;48.308;8.914;2022-09-03T04:31:11;4.10;;;3.60;;
16031;SDS011;8120;48.308;8.914;2022-09-03T04:33:40;4.17;;;3.33;;
16031;SDS011;8120;48.308;8.914;2022-09-03T04:36:09;4.87;;;3.50;;
16031;SDS011;8120;48.308;8.914;2022-09-03T04:38:38;4.20;;;3.57;;
16031;SDS011;8120;48.308;8.914;2022-09-03T04:41:09;4.90;;;3.70;;
16031;SDS011;8120;48.308;8.914;2022-09-03T04:43:38;4.13;;;3.43;;
16031;SDS011;8120;48.308;8.914;2022-09-03T04:46:08;5.10;;;4.07;;
16031;SDS011;8120;48.308;8.914;2022-09-03T04:48:46;6.00;;;3.50;;
16031;SDS011;8120;48.308;8.914;2022-09-03T04:51:15;5.70;;;3.57;;
16031;SDS011;8120;48.308;8.914;2022-09-03T04:53:46;4.43;;;3.53;;
16031;SDS011;8120;48.308;8.914;2022-09-03T04:56:17;5.10;;;3.80;;
16031;SDS011;8120;48.308;8.914;2022-09-03T04:58:47;4.83;;;3.80;;
16031;SDS011;8120;48.308;8.914;2022-09-03T05:01:17;4.67;;;3.73;;
16031;SDS011;8120;48.308;8.914;2022-09-03T05:03:46;4.37;;;3.60;;
16031;SDS011;8120;48.308;8.914;2022-09-03T05:06:16;5.20;;;3.70;;
16031;SDS011;8120;48.308;8.914;2022-09-03T05:08:46;5.77;;;3.90;;
16031;SDS011;8120;48.308;8.914;2022-09-03T05:11:16;4.67;;;3.33;;
16031;SDS011;8120;48.308;8.914;2022-09-03T05:13:46;4.40;;;3.53;;
16031;SDS011;8120;48.308;8.914;2022-09-03T05:16:15;4.80;;;4.03;;
16031;SDS011;8120;48.308;8.914;2022-09-03T05:18:44;6.20;;;3.53;;
16031;SDS011;8120;48.308;8.914;2022-09-03T05:21:13;5.77;;;4.00;;
16031;SDS011;8120;48.308;8.914;2022-09-03T05:23:43;4.30;;;3.43;;
16031;SDS011;8120;48.308;8.914;2022-09-03T05:26:12;4.17;;;3.23;;
16031;SDS011;8120;48.308;8.914;2022-09-03T05:28:44;4.17;;;2.73;;
16031;SDS011;8120;48.308;8.914;2022-09-03T05:31:13;3.33;;;2.77;;
16031;SDS011;8120;48.308;8.914;2022-09-03T05:33:43;3.97;;;2.47;;
16031;SDS011;8120;48.308;8.914;2022-09-03T05:36:13;3.23;;;2.40;;
16031;SDS011;8120;48.308;8.914;2022-09-03T05:38:43;3.00;;;2.20;;
16031;SDS011;8120;48.308;8.914;2022-09-03T05:41:12;3.07;;;2.20;;
16031;SDS011;8120;48.308;8.914;2022-09-03T05:43:46;3.00;;;2.30;;
16031;SDS011;8120;48.308;8.914;2022-09-03T05:46:17;2.73;;;2.03;;
16031;SDS011;8120;48.308;8.914;2022-09-03T05:48:45;2.53;;;2.17;;
16031;SDS011;8120;48.308;8.914;2022-09-03T05:51:13;2.90;;;2.17;;
16031;SDS011;8120;48.308;8.914;2022-09-03T05:53:43;2.53;;;1.90;;
16031;SDS011;8120;48.308;8.914;2022-09-03T05:56:13;2.47;;;2.03;;
16031;SDS011;8120;48.308;8.914;2022-09-03T05:58:44;2.90;;;2.27;;
16031;SDS011;8120;48.308;8.914;2022-09-03T06:01:14;2.57;;;2.07;;
16031;SDS011;8120;48.308;8.914;2022-09-03T06:03:44;3.43;;;2.67;;
16031;SDS011;8120;48.308;8.914;2022-09-03T06:06:13;2.60;;;2.17;;
16031;SDS011;8120;48.308;8.914;2022-09-03T06:08:41;3.33;;;2.47;;
16031;SDS011;8120;48.308;8.914;2022-09-03T06:11:10;3.00;;;2.27;;
16031;SDS011;8120;48.308;8.914;2022-09-03T06:13:38;2.10;;;1.90;;
16031;SDS011;8120;48.308;8.914;2022-09-03T06:16:07;2.63;;;2.03;;
16031;SDS011;8120;48.308;8.914;2022-09-03T06:18:35;3.20;;;2.07;;
16031;SDS011;8120;48.308;8.914;2022-09-03T06:21:04;2.73;;;2.20;;
16031;SDS011;8120;48.308;8.914;2022-09-03T06:23:34;4.23;;;2.43;;
16031;SDS011;8120;48.308;8.914;2022-09-03T06:26:04;3.13;;;2.23;;
16031;SDS011;8120;48.308;8.914;2022-09-03T06:28:36;2.97;;;2.40;;
16031;SDS011;8120;48.308;8.914;2022-09-03T06:31:07;4.10;;;2.40;;
16031;SDS011;8120;48.308;8.914;2022-09-03T06:33:37;3.43;;;2.50;;
16031;SDS011;8120;48.308;8.914;2022-09-03T06:36:06;3.10;;;2.20;;
16031;SDS011;8120;48.308;8.914;2022-09-03T06:38:36;3.00;;;2.37;;
16031;SDS011;8120;48.308;8.914;2022-09-03T06:41:05;3.33;;;2.50;;
16031;SDS011;8120;48.308;8.914;2022-09-03T06:43:35;3.63;;;2.77;;
16031;SDS011;8120;48.308;8.914;2022-09-03T06:46:05;4.63;;;2.80;;
16031;SDS011;8120;48.308;8.914;2022-09-03T06:48:36;4.80;;;3.00;;
16031;SDS011;8120;48.308;8.914;2022-09-03T06:51:06;3.33;;;2.40;;
16031;SDS011;8120;48.308;8.914;2022-09-03T06:53:36;3.07;;;2.33;;
16031;SDS011;8120;48.308;8.914;2022-09-03T06:56:06;2.13;;;1.93;;
16031;SDS011;8120;48.308;8.914;2022-09-03T06:58:36;2.23;;;1.83;;
16031;SDS011;8120;48.308;8.914;2022-09-03T07:01:08;3.20;;;2.30;;
16031;SDS011;8120;48.308;8.914;2022-09-03T07:03:38;3.53;;;2.20;;
16031;SDS011;8120;48.308;8.914;2022-09-03T07:06:07;3.17;;;2.30;;
16031;SDS011;8120;48.308;8.914;2022-09-03T07:08:36;3.17;;;2.13;;
16031;SDS011;8120;48.308;8.914;2022-09-03T07:11:05;2.40;;;1.90;;
16031;SDS011;8120;48.308;8.914;2022-09-03T07:13:35;2.97;;;2.20;;
16031;SDS011;8120;48.308;8.914;2022-09-03T07:16:05;2.00;;;1.80;;
16031;SDS011;8120;48.308;8.914;2022-09-03T07:18:36;2.00;;;1.63;;
16031;SDS011;8120;48.308;8.914;2022-09-03T07:21:05;1.47;;;1.37;;
16031;SDS011;8120;48.308;8.914;2022-09-03T07:23:35;2.00;;;1.80;;
16031;SDS011;8120;48.308;8.914;2022-09-03T07:26:06;1.80;;;1.40;;
16031;SDS011;8120;48.308;8.914;2022-09-03T07:28:36;1.30;;;1.20;;
16031;SDS011;8120;48.308;8.914;2022-09-03T07:31:06;1.77;;;1.63;;
16031;SDS011;8120;48.308;8.914;2022-09-03T07:33:37;1.90;;;1.70;;
16031;SDS011;8120;48.308;8.914;2022-09-03T07:36:06;1.73;;;1.50;;
16031;SDS011;8120;48.308;8.914;2022-09-03T07:38:35;3.13;;;1.40;;
16031;SDS011;8120;48.308;8.914;2022-09-03T07:41:04;2.00;;;1.23;;
16031;SDS011;8120;48.308;8.914;2022-09-03T07:43:34;2.83;;;1.70;;
16031;SDS011;8120;48.308;8.914;2022-09-03T07:46:05;1.97;;;1.30;;
16031;SDS011;8120;48.308;8.914;2022-09-03T07:48:35;2.37;;;1.70;;
16031;SDS011;8120;48.308;8.914;2022-09-03T07:51:02;1.30;;;1.20;;
16031;SDS011;8120;48.308;8.914;2022-09-03T07:53:31;2.77;;;1.60;;
16031;SDS011;8120;48.308;8.914;2022-09-03T07:56:03;1.50;;;1.40;;
16031;SDS011;8120;48.308;8.914;2022-09-03T07:58:32;2.50;;;1.40;;
16031;SDS011;8120;48.308;8.914;2022-09-03T08:01:03;3.77;;;1.43;;
16031;SDS011;8120;48.308;8.914;2022-09-03T08:03:38;2.30;;;1.60;;
16031;SDS011;8120;48.308;8.914;2022-09-03T08:06:09;2.93;;;1.63;;
16031;SDS011;8120;48.308;8.914;2022-09-03T08:08:38;1.43;;;1.33;;
16031;SDS011;8120;48.308;8.914;2022-09-03T08:11:07;2.30;;;1.30;;
16031;SDS011;8120;48.308;8.914;2022-09-03T08:13:37;1.30;;;1.20;;
16031;SDS011;8120;48.308;8.914;2022-09-03T08:16:06;1.10;;;1.00;;
16031;SDS011;8120;48.308;8.914;2022-09-03T08:18:35;1.93;;;1.23;;
16031;SDS011;8120;48.308;8.914;2022-09-03T08:21:06;1.67;;;1.27;;
16031;SDS011;8120;48.308;8.914;2022-09-03T08:23:38;1.53;;;1.10;;
16031;SDS011;8120;48.308;8.914;2022-09-03T08:26:07;1.70;;;1.23;;
16031;SDS011;8120;48.308;8.914;2022-09-03T08:28:36;1.50;;;1.40;;
16031;SDS011;8120;48.308;8.914;2022-09-03T08:31:05;3.73;;;1.60;;
16031;SDS011;8120;48.308;8.914;2022-09-03T08:33:35;2.80;;;1.70;;
16031;SDS011;8120;48.308;8.914;2022-09-03T08:36:04;1.40;;;1.30;;
16031;SDS011;8120;48.308;8.914;2022-09-03T08:38:35;2.37;;;1.60;;
16031;SDS011;8120;48.308;8.914;2022-09-03T08:41:04;1.83;;;1.50;;
16031;SDS011;8120;48.308;8.914;2022-09-03T08:43:34;1.57;;;1.13;;
16031;SDS011;8120;48.308;8.914;2022-09-03T08:46:17;1.80;;;1.40;;
16031;SDS011;8120;48.308;8.914;2022-09-03T08:48:46;4.20;;;1.43;;
16031;SDS011;8120;48.308;8.914;2022-09-03T08:51:16;5.93;;;1.50;;
16031;SDS011;8120;48.308;8.914;2022-09-03T08:53:50;2.07;;;1.57;;
16031;SDS011;8120;48.308;8.914;2022-09-03T08:56:23;6.22;;;1.77;;
16031;SDS011;8120;48.308;8.914;2022-09-03T08:58:54;1.40;;;1.30;;
16031;SDS011;8120;48.308;8.914;2022-09-03T09:01:25;1.95;;;1.65;;
16031;SDS011;8120;48.308;8.914;2022-09-03T09:04:05;2.03;;;1.83;;
16031;SDS011;8120;48.308;8.914;2022-09-03T09:06:48;2.33;;;1.90;;
16031;SDS011;8120;48.308;8.914;2022-09-03T09:09:22;3.47;;;1.73;;
16031;SDS011;8120;48.308;8.914;2022-09-03T09:11:59;2.67;;;1.90;;
16031;SDS011;8120;48.308;8.914;2022-09-03T09:14:34;2.05;;;1.63;;
16031;SDS011;8120;48.308;8.914;2022-09-03T09:17:13;2.03;;;1.60;;
16031;SDS011;8120;48.308;8.914;2022-09-03T09:19:56;2.83;;;2.25;;
16031;SDS011;8120;48.308;8.914;2022-09-03T09:22:35;2.78;;;1.90;;
16031;SDS011;8120;48.308;8.914;2022-09-03T09:25:07;3.95;;;2.35;;
16031;SDS011;8120;48.308;8.914;2022-09-03T09:27:40;4.50;;;2.13;;
16031;SDS011;8120;48.308;8.914;2022-09-03T09:30:17;2.45;;;2.10;;
16031;SDS011;8120;48.308;8.914;2022-09-03T09:32:45;2.33;;;1.93;;
16031;SDS011;8120;48.308;8.914;2022-09-03T09:35:14;2.30;;;1.73;;
16031;SDS011;8120;48.308;8.914;2022-09-03T09:37:50;2.20;;;1.83;;
16031;SDS011;8120;48.308;8.914;2022-09-03T09:40:23;2.07;;;1.87;;
16031;SDS011;8120;48.308;8.914;2022-09-03T09:43:01;2.60;;;2.00;;
16031;SDS011;8120;48.308;8.914;2022-09-03T09:45:31;2.33;;;2.10;;
16031;SDS011;8120;48.308;8.914;2022-09-03T09:48:00;2.23;;;2.03;;
16031;SDS011;8120;48.308;8.914;2022-09-03T09:50:33;3.72;;;1.92;;
16031;SDS011;8120;48.308;8.914;2022-09-03T09:53:03;2.15;;;1.90;;
16031;SDS011;8120;48.308;8.914;2022-09-03T09:55:49;2.08;;;1.88;;
16031;SDS011;8120;48.308;8.914;2022-09-03T09:58:22;2.63;;;2.22;;
16031;SDS011;8120;48.308;8.914;2022-09-03T10:00:58;4.55;;;1.90;;
16031;SDS011;8120;48.308;8.914;2022-09-03T10:03:32;2.95;;;2.35;;
16031;SDS011;8120;48.308;8.914;2022-09-03T10:06:02;2.08;;;1.80;;
16031;SDS011;8120;48.308;8.914;2022-09-03T10:08:48;2.85;;;2.10;;
16031;SDS011;8120;48.308;8.914;2022-09-03T10:11:16;2.65;;;2.33;;
16031;SDS011;8120;48.308;8.914;2022-09-03T10:13:47;4.65;;;2.08;;
16031;SDS011;8120;48.308;8.914;2022-09-03T10:16:19;4.13;;;2.28;;
16031;SDS011;8120;48.308;8.914;2022-09-03T10:18:52;3.22;;;2.30;;
16031;SDS011;8120;48.308;8.914;2022-09-03T10:21:28;2.20;;;1.90;;
16031;SDS011;8120;48.308;8.914;2022-09-03T10:24:20;2.60;;;2.13;;
16031;SDS011;8120;48.308;8.914;2022-09-03T10:27:07;2.78;;;2.10;;
16031;SDS011;8120;48.308;8.914;2022-09-03T10:29:38;2.60;;;2.20;;
16031;SDS011;8120;48.308;8.914;2022-09-03T10:32:10;2.33;;;2.13;;
16031;SDS011;8120;48.308;8.914;2022-09-03T10:35:07;3.40;;;2.30;;
16031;SDS011;8120;48.308;8.914;2022-09-03T10:37:41;2.40;;;2.13;;
16031;SDS011;8120;48.308;8.914;2022-09-03T10:40:23;1.90;;;1.70;;
16031;SDS011;8120;48.308;8.914;2022-09-03T10:42:59;2.73;;;2.30;;
16031;SDS011;8120;48.308;8.914;2022-09-03T10:45:45;4.70;;;2.20;;
16031;SDS011;8120;48.308;8.914;2022-09-03T10:48:30;3.03;;;2.30;;
16031;SDS011;8120;48.308;8.914;2022-09-03T10:51:18;3.83;;;2.27;;
16031;SDS011;8120;48.308;8.914;2022-09-03T10:53:53;3.30;;;2.27;;
16031;SDS011;8120;48.308;8.914;2022-09-03T10:56:46;6.93;;;2.10;;
16031;SDS011;8120;48.308;8.914;2022-09-03T10:59:24;1.07;;;0.93;;
16031;SDS011;8120;48.308;8.914;2022-09-03T11:02:03;3.70;;;1.67;;
16031;SDS011;8120;48.308;8.914;2022-09-03T11:04:45;1.73;;;1.30;;
16031;SDS011;8120;48.308;8.914;2022-09-03T11:07:21;3.30;;;1.80;;
16031;SDS011;8120;48.308;8.914;2022-09-03T11:09:54;3.60;;;1.27;;
16031;SDS011;8120;48.308;8.914;2022-09-03T11:12:31;7.37;;;2.83;;
16031;SDS011;8120;48.308;8.914;2022-09-03T11:15:04;6.13;;;2.63;;
16031;SDS011;8120;48.308;8.914;2022-09-03T11:17:37;4.65;;;2.60;;
16031;SDS011;8120;48.308;8.914;2022-09-03T11:20:10;5.95;;;2.70;;
16031;SDS011;8120;48.308;8.914;2022-09-03T11:22:46;4.57;;;1.90;;
16031;SDS011;8120;48.308;8.914;2022-09-03T11:25:17;4.78;;;2.00;;
16031;SDS011;8120;48.308;8.914;2022-09-03T11:27:54;2.73;;;1.77;;
16031;SDS011;8120;48.308;8.914;2022-09-03T11:30:31;2.15;;;1.50;;
16031;SDS011;8120;48.308;8.914;2022-09-03T11:33:05;1.50;;;1.27;;
16031;SDS011;8120;48.308;8.914;2022-09-03T11:35:39;2.00;;;1.40;;
16031;SDS011;8120;48.308;8.914;2022-09-03T11:38:17;1.33;;;1.02;;
16031;SDS011;8120;48.308;8.914;2022-09-03T11:40:57;3.67;;;1.03;;
16031;SDS011;8120;48.308;8.914;2022-09-03T11:43:32;2.07;;;1.37;;
16031;SDS011;8120;48.308;8.914;2022-09-03T11:46:01;3.47;;;1.40;;
16031;SDS011;8120;48.308;8.914;2022-09-03T11:48:35;2.63;;;1.07;;
16031;SDS011;8120;48.308;8.914;2022-09-03T11:51:14;2.40;;;1.00;;
16031;SDS011;8120;48.308;8.914;2022-09-03T11:53:53;2.53;;;1.10;;
16031;SDS011;8120;48.308;8.914;2022-09-03T11:56:22;6.30;;;1.70;;
16031;SDS011;8120;48.308;8.914;2022-09-03T11:59:02;2.33;;;1.10;;
16031;SDS011;8120;48.308;8.914;2022-09-03T12:01:42;2.10;;;1.60;;
16031;SDS011;8120;48.308;8.914;2022-09-03T12:04:13;3.23;;;1.50;;
16031;SDS011;8120;48.308;8.914;2022-09-03T12:09:56;1.93;;;1.17;;
16031;SDS011;8120;48.308;8.914;2022-09-03T12:12:52;2.40;;;1.13;;
16031;SDS011;8120;48.308;8.914;2022-09-03T12:15:48;1.13;;;0.93;;
16031;SDS011;8120;48.308;8.914;2022-09-03T12:18:35;1.03;;;0.90;;
16031;SDS011;8120;48.308;8.914;2022-09-03T12:21:04;1.33;;;0.90;;
16031;SDS011;8120;48.308;8.914;2022-09-03T12:23:34;1.03;;;0.97;;
16031;SDS011;8120;48.308;8.914;2022-09-03T12:26:08;2.93;;;0.90;;
16031;SDS011;8120;48.308;8.914;2022-09-03T12:28:40;0.77;;;0.70;;
16031;SDS011;8120;48.308;8.914;2022-09-03T12:31:13;0.77;;;0.50;;
16031;SDS011;8120;48.308;8.914;2022-09-03T12:33:50;0.70;;;0.70;;
16031;SDS011;8120;48.308;8.914;2022-09-03T12:36:20;0.50;;;0.50;;
16031;SDS011;8120;48.308;8.914;2022-09-03T12:38:49;2.40;;;0.90;;
16031;SDS011;8120;48.308;8.914;2022-09-03T12:41:37;1.67;;;1.10;;
16031;SDS011;8120;48.308;8.914;2022-09-03T12:44:13;1.43;;;1.10;;
16031;SDS011;8120;48.308;8.914;2022-09-03T12:46:42;2.03;;;1.03;;
16031;SDS011;8120;48.308;8.914;2022-09-03T12:49:13;1.73;;;0.70;;
16031;SDS011;8120;48.308;8.914;2022-09-03T12:51:57;0.67;;;0.67;;
16031;SDS011;8120;48.308;8.914;2022-09-03T12:54:31;0.60;;;0.60;;
16031;SDS011;8120;48.308;8.914;2022-09-03T12:57:00;1.13;;;0.57;;
16031;SDS011;8120;48.308;8.914;2022-09-03T12:59:30;2.53;;;0.63;;
16031;SDS011;8120;48.308;8.914;2022-09-03T13:02:03;0.57;;;0.50;;
16031;SDS011;8120;48.308;8.914;2022-09-03T13:04:38;0.93;;;0.70;;
16031;SDS011;8120;48.308;8.914;2022-09-03T13:07:10;1.50;;;0.67;;
16031;SDS011;8120;48.308;8.914;2022-09-03T13:09:40;0.47;;;0.40;;
16031;SDS011;8120;48.308;8.914;2022-09-03T13:12:19;0.77;;;0.77;;
16031;SDS011;8120;48.308;8.914;2022-09-03T13:14:48;0.73;;;0.73;;
16031;SDS011;8120;48.308;8.914;2022-09-03T13:17:28;1.23;;;0.80;;
16031;SDS011;8120;48.308;8.914;2022-09-03T13:20:24;0.70;;;0.70;;
16031;SDS011;8120;48.308;8.914;2022-09-03T13:23:01;0.70;;;0.70;;
16031;SDS011;8120;48.308;8.914;2022-09-03T13:25:38;0.77;;;0.60;;
16031;SDS011;8120;48.308;8.914;2022-09-03T13:28:20;2.47;;;0.90;;
16031;SDS011;8120;48.308;8.914;2022-09-03T13:31:07;0.57;;;0.57;;
16031;SDS011;8120;48.308;8.914;2022-09-03T13:33:53;1.20;;;0.70;;
16031;SDS011;8120;48.308;8.914;2022-09-03T13:36:27;1.87;;;0.70;;
16031;SDS011;8120;48.308;8.914;2022-09-03T13:39:01;1.17;;;0.73;;
16031;SDS011;8120;48.308;8.914;2022-09-03T13:41:33;1.00;;;0.90;;
16031;SDS011;8120;48.308;8.914;2022-09-03T13:44:08;0.63;;;0.63;;
16031;SDS011;8120;48.308;8.914;2022-09-03T13:46:40;1.00;;;0.90;;
16031;SDS011;8120;48.308;8.914;2022-09-03T13:49:15;2.27;;;0.90;;
16031;SDS011;8120;48.308;8.914;2022-09-03T13:52:18;1.63;;;0.60;;
16031;SDS011;8120;48.308;8.914;2022-09-03T13:54:51;1.37;;;0.90;;
16031;SDS011;8120;48.308;8.914;2022-09-03T13:57:25;1.00;;;0.80;;
16031;SDS011;8120;48.308;8.914;2022-09-03T14:00:03;1.90;;;0.97;;
16031;SDS011;8120;48.308;8.914;2022-09-03T14:02:38;0.67;;;0.67;;
16031;SDS011;8120;48.308;8.914;2022-09-03T14:05:22;1.67;;;0.80;;
16031;SDS011;8120;48.308;8.914;2022-09-03T14:08:03;1.10;;;0.90;;
16031;SDS011;8120;48.308;8.914;2022-09-03T14:13:31;1.10;;;1.00;;
16031;SDS011;8120;48.308;8.914;2022-09-03T14:16:23;2.00;;;1.10;;
16031;SDS011;8120;48.308;8.914;2022-09-03T14:18:56;1.10;;;1.00;;
16031;SDS011;8120;48.308;8.914;2022-09-03T14:21:29;1.23;;;0.90;;
16031;SDS011;8120;48.308;8.914;2022-09-03T14:24:03;2.03;;;0.93;;
16031;SDS011;8120;48.308;8.914;2022-09-03T14:26:36;0.97;;;0.90;;
16031;SDS011;8120;48.308;8.914;2022-09-03T14:29:15;1.20;;;1.10;;
16031;SDS011;8120;48.308;8.914;2022-09-03T14:31:50;1.63;;;1.10;;
16031;SDS011;8120;48.308;8.914;2022-09-03T14:34:39;1.90;;;1.40;;
16031;SDS011;8120;48.308;8.914;2022-09-03T14:37:27;1.30;;;0.90;;
16031;SDS011;8120;48.308;8.914;2022-09-03T14:40:12;0.80;;;0.67;;
16031;SDS011;8120;48.308;8.914;2022-09-03T14:42:55;2.90;;;1.50;;
16031;SDS011;8120;48.308;8.914;2022-09-03T14:45:49;1.63;;;1.20;;
16031;SDS011;8120;48.308;8.914;2022-09-03T14:48:35;1.13;;;0.93;;
16031;SDS011;8120;48.308;8.914;2022-09-03T14:51:17;1.47;;;1.10;;
16031;SDS011;8120;48.308;8.914;2022-09-03T14:54:03;1.90;;;1.00;;
16031;SDS011;8120;48.308;8.914;2022-09-03T14:57:03;1.10;;;1.00;;
16031;SDS011;8120;48.308;8.914;2022-09-03T14:59:57;1.10;;;0.97;;
16031;SDS011;8120;48.308;8.914;2022-09-03T15:02:42;1.40;;;1.07;;
16031;SDS011;8120;48.308;8.914;2022-09-03T15:05:37;3.17;;;1.07;;
16031;SDS011;8120;48.308;8.914;2022-09-03T15:08:14;1.20;;;1.10;;
16031;SDS011;8120;48.308;8.914;2022-09-03T15:10:56;2.97;;;1.33;;
16031;SDS011;8120;48.308;8.914;2022-09-03T15:13:27;0.80;;;0.80;;
16031;SDS011;8120;48.308;8.914;2022-09-03T15:16:04;1.30;;;1.20;;
16031;SDS011;8120;48.308;8.914;2022-09-03T15:18:44;1.73;;;1.03;;
16031;SDS011;8120;48.308;8.914;2022-09-03T15:21:24;1.60;;;0.80;;
16031;SDS011;8120;48.308;8.914;2022-09-03T15:24:01;1.37;;;0.87;;
16031;SDS011;8120;48.308;8.914;2022-09-03T15:29:37;3.03;;;1.10;;
16031;SDS011;8120;48.308;8.914;2022-09-03T15:32:17;1.03;;;0.87;;
16031;SDS011;8120;48.308;8.914;2022-09-03T15:35:01;0.80;;;0.80;;
16031;SDS011;8120;48.308;8.914;2022-09-03T15:37:33;1.00;;;0.90;;
16031;SDS011;8120;48.308;8.914;2022-09-03T15:40:09;3.63;;;1.30;;
16031;SDS011;8120;48.308;8.914;2022-09-03T15:42:52;2.07;;;1.40;;
16031;SDS011;8120;48.308;8.914;2022-09-03T15:45:32;1.37;;;0.90;;
16031;SDS011;8120;48.308;8.914;2022-09-03T15:48:09;1.10;;;0.70;;
16031;SDS011;8120;48.308;8.914;2022-09-03T15:50:51;0.70;;;0.70;;
16031;SDS011;8120;48.308;8.914;2022-09-03T15:53:27;1.10;;;0.90;;